createdAt,value
2023-02-16T00:00:06.228Z,14.20
2023-02-16T00:01:21.625Z,14.10
2023-02-16T00:02:24.261Z,12.40
2023-02-16T00:03:26.912Z,14.30
2023-02-16T00:04:31.023Z,15.30
2023-02-16T00:05:34.462Z,14.00
2023-02-16T00:06:37.740Z,14.50
2023-02-16T00:07:40.222Z,12.10
2023-02-16T00:08:48.157Z,14.10
2023-02-16T00:09:50.661Z,12.10
2023-02-16T00:11:14.266Z,12.90
2023-02-16T00:12:37.368Z,13.10
2023-02-16T00:15:00.967Z,14.80
2023-02-16T00:16:09.433Z,11.30
2023-02-16T00:17:11.903Z,11.00
2023-02-16T00:19:35.103Z,9.60
2023-02-16T00:20:38.233Z,14.50
2023-02-16T00:21:40.904Z,11.10
2023-02-16T00:22:43.919Z,14.27
2023-02-16T00:23:49.302Z,10.70
2023-02-16T00:24:51.938Z,12.70
2023-02-16T00:25:55.552Z,11.80
2023-02-16T00:26:58.434Z,10.80
2023-02-16T00:28:02.662Z,11.36
2023-02-16T00:29:19.773Z,12.40
2023-02-16T00:30:25.948Z,11.70
2023-02-16T00:31:32.323Z,12.60
2023-02-16T00:32:34.884Z,13.60
2023-02-16T00:33:39.579Z,10.40
2023-02-16T00:34:42.280Z,12.00
2023-02-16T00:35:44.806Z,11.55
2023-02-16T00:36:47.401Z,9.40
2023-02-16T00:37:49.617Z,10.50
2023-02-16T00:38:53.218Z,11.00
2023-02-16T00:39:55.593Z,8.82
2023-02-16T00:40:58.387Z,9.36
2023-02-16T00:43:27.427Z,11.30
2023-02-16T00:44:36.247Z,6.90
2023-02-16T00:45:38.820Z,10.30
2023-02-16T00:46:43.133Z,9.80
2023-02-16T00:47:47.767Z,11.00
2023-02-16T00:48:52.766Z,12.10
2023-02-16T00:49:55.268Z,11.80
2023-02-16T00:50:58.509Z,10.80
2023-02-16T00:52:01.004Z,10.73
2023-02-16T00:53:03.433Z,10.70
2023-02-16T00:54:06.564Z,9.90
2023-02-16T00:55:14.837Z,9.80
2023-02-16T00:56:18.893Z,8.70
2023-02-16T00:57:21.242Z,10.70
2023-02-16T00:58:34.144Z,8.60
2023-02-16T00:59:36.745Z,9.80
2023-02-16T01:00:44.462Z,8.30
2023-02-16T01:01:48.933Z,11.60
2023-02-16T01:02:53.160Z,10.60
2023-02-16T01:03:55.518Z,10.80
2023-02-16T01:05:00.662Z,10.09
2023-02-16T01:06:22.499Z,9.30
2023-02-16T01:07:45.492Z,10.80
2023-02-16T01:09:06.817Z,8.70
2023-02-16T01:10:29.712Z,9.30
2023-02-16T01:11:32.320Z,8.30
2023-02-16T01:12:34.673Z,10.50
2023-02-16T01:15:08.374Z,8.20
2023-02-16T01:16:17.208Z,9.80
2023-02-16T01:17:19.638Z,9.60
2023-02-16T01:18:22.882Z,9.80
2023-02-16T01:19:27.050Z,8.80
2023-02-16T01:20:29.477Z,8.90
2023-02-16T01:21:32.563Z,8.00
2023-02-16T01:22:36.975Z,7.60
2023-02-16T01:23:41.282Z,8.80
2023-02-16T01:24:45.148Z,9.70
2023-02-16T01:25:48.906Z,9.10
2023-02-16T01:26:52.912Z,9.10
2023-02-16T01:27:55.210Z,9.30
2023-02-16T01:28:57.841Z,6.10
2023-02-16T01:30:00.756Z,8.60
2023-02-16T01:31:03.945Z,7.40
2023-02-16T01:32:07.335Z,7.20
2023-02-16T01:33:11.707Z,8.30
2023-02-16T01:34:14.513Z,8.18
2023-02-16T01:35:20.450Z,9.30
2023-02-16T01:36:25.880Z,8.10
2023-02-16T01:37:28.272Z,8.30
2023-02-16T01:38:30.776Z,7.90
2023-02-16T01:39:35.015Z,7.20
2023-02-16T01:40:42.389Z,8.10
2023-02-16T01:41:57.261Z,7.80
2023-02-16T01:43:08.440Z,7.50
2023-02-16T01:44:14.413Z,5.40
2023-02-16T01:45:19.240Z,8.10
2023-02-16T01:46:31.431Z,5.90
2023-02-16T01:47:54.464Z,9.50
2023-02-16T01:48:57.399Z,7.40
2023-02-16T01:50:03.596Z,6.30
2023-02-16T01:51:13.165Z,8.10
2023-02-16T01:53:51.213Z,7.50
2023-02-16T01:55:17.298Z,7.10
2023-02-16T01:58:21.655Z,6.20
2023-02-16T01:59:45.582Z,7.30
2023-02-16T02:00:55.589Z,5.20
2023-02-16T02:01:58.977Z,6.70
2023-02-16T02:04:44.215Z,5.90
2023-02-16T02:05:48.070Z,7.30
2023-02-16T02:06:51.596Z,6.70
2023-02-16T02:07:58.869Z,6.20
2023-02-16T02:09:08.169Z,9.20
2023-02-16T02:11:34.951Z,7.00
2023-02-16T02:14:09.652Z,4.70
2023-02-16T02:15:12.688Z,5.90
2023-02-16T02:16:17.961Z,6.90
2023-02-16T02:17:23.371Z,6.80
2023-02-16T02:18:25.849Z,6.40
2023-02-16T02:19:30.043Z,7.20
2023-02-16T02:21:29.537Z,6.50
2023-02-16T02:23:25.120Z,6.60
2023-02-16T02:26:39.677Z,4.90
2023-02-16T02:29:24.975Z,0.90
2023-02-16T02:30:44.183Z,7.00
2023-02-16T02:32:11.767Z,4.00
2023-02-16T02:35:09.636Z,5.10
2023-02-16T02:36:16.250Z,6.50
2023-02-16T02:37:37.995Z,7.30
2023-02-16T02:39:02.334Z,5.30
2023-02-16T02:40:29.317Z,7.30
2023-02-16T02:42:03.306Z,4.80
2023-02-16T02:43:29.293Z,5.40
2023-02-16T02:44:41.468Z,5.80
2023-02-16T02:45:47.580Z,5.50
2023-02-16T02:46:50.728Z,5.40
2023-02-16T02:47:55.194Z,5.90
2023-02-16T02:48:59.683Z,7.90
2023-02-16T02:50:02.133Z,5.70
2023-02-16T02:51:30.348Z,7.18
2023-02-16T02:52:35.327Z,5.50
2023-02-16T02:53:42.117Z,6.30
2023-02-16T02:55:03.861Z,6.40
2023-02-16T02:56:26.131Z,5.90
2023-02-16T02:57:56.870Z,5.20
2023-02-16T02:59:20.859Z,6.10
2023-02-16T03:00:43.473Z,4.20
2023-02-16T03:01:49.613Z,6.40
2023-02-16T03:02:54.984Z,4.70
2023-02-16T03:03:57.464Z,8.00
2023-02-16T03:04:59.882Z,5.30
2023-02-16T03:06:13.381Z,5.50
2023-02-16T03:07:15.884Z,6.80
2023-02-16T03:08:21.260Z,5.50
2023-02-16T03:09:24.603Z,4.30
2023-02-16T03:10:45.829Z,5.30
2023-02-16T03:12:07.607Z,4.60
2023-02-16T03:14:51.645Z,6.70
2023-02-16T03:15:55.373Z,6.20
2023-02-16T03:17:17.847Z,5.00
2023-02-16T03:18:38.704Z,4.40
2023-02-16T03:20:00.332Z,5.70
2023-02-16T03:21:22.746Z,4.70
2023-02-16T03:22:43.539Z,3.10
2023-02-16T03:24:06.132Z,5.80
2023-02-16T03:25:28.009Z,4.20
2023-02-16T03:26:49.168Z,4.70
2023-02-16T03:28:10.183Z,4.80
2023-02-16T03:30:29.825Z,4.90
2023-02-16T03:31:34.802Z,5.00
2023-02-16T03:32:38.012Z,5.30
2023-02-16T03:33:40.474Z,5.20
2023-02-16T03:34:43.130Z,4.70
2023-02-16T03:35:45.561Z,5.10
2023-02-16T03:36:49.867Z,4.09
2023-02-16T03:37:53.267Z,4.90
2023-02-16T03:38:55.636Z,4.80
2023-02-16T03:40:16.345Z,3.50
2023-02-16T03:41:19.338Z,5.60
2023-02-16T03:42:22.102Z,5.60
2023-02-16T03:43:25.758Z,4.10
2023-02-16T03:44:28.618Z,4.00
2023-02-16T03:45:32.458Z,4.10
2023-02-16T03:46:35.353Z,4.50
2023-02-16T03:47:38.172Z,4.55
2023-02-16T03:48:40.825Z,5.18
2023-02-16T03:49:43.440Z,6.30
2023-02-16T03:50:46.138Z,5.00
2023-02-16T03:51:49.102Z,3.20
2023-02-16T03:52:51.595Z,4.50
2023-02-16T03:53:54.876Z,5.70
2023-02-16T03:54:57.220Z,4.80
2023-02-16T03:55:59.587Z,5.40
2023-02-16T03:57:02.981Z,7.00
2023-02-16T03:58:06.379Z,6.00
2023-02-16T03:59:08.955Z,4.80
2023-02-16T04:00:12.491Z,4.00
2023-02-16T04:01:19.101Z,4.50
2023-02-16T04:02:21.852Z,4.80
2023-02-16T04:03:25.184Z,6.27
2023-02-16T04:04:28.712Z,5.40
2023-02-16T04:05:31.442Z,4.60
2023-02-16T04:06:33.836Z,5.00
2023-02-16T04:07:36.597Z,6.60
2023-02-16T04:08:41.713Z,6.00
2023-02-16T04:09:44.097Z,4.50
2023-02-16T04:10:46.517Z,4.50
2023-02-16T04:12:07.787Z,6.00
2023-02-16T04:13:10.155Z,5.30
2023-02-16T04:14:13.636Z,5.20
2023-02-16T04:16:34.591Z,4.60
2023-02-16T04:17:37.017Z,5.90
2023-02-16T04:18:39.977Z,4.10
2023-02-16T04:19:42.391Z,5.20
2023-02-16T04:20:45.211Z,6.20
2023-02-16T04:21:47.541Z,7.50
2023-02-16T04:22:50.130Z,5.40
2023-02-16T04:23:52.723Z,6.30
2023-02-16T04:24:55.086Z,7.00
2023-02-16T04:25:57.957Z,5.30
2023-02-16T04:27:00.506Z,4.80
2023-02-16T04:28:03.162Z,4.90
2023-02-16T04:29:05.666Z,4.90
2023-02-16T04:30:12.478Z,5.40
2023-02-16T04:31:15.519Z,6.10
2023-02-16T04:32:17.931Z,6.73
2023-02-16T04:33:20.230Z,5.60
2023-02-16T04:34:22.875Z,5.60
2023-02-16T04:35:25.745Z,7.00
2023-02-16T04:36:29.346Z,5.60
2023-02-16T04:37:32.163Z,5.50
2023-02-16T04:38:34.648Z,5.27
2023-02-16T04:39:36.843Z,5.80
2023-02-16T04:40:40.143Z,5.20
2023-02-16T04:41:43.172Z,7.20
2023-02-16T04:42:45.531Z,5.64
2023-02-16T04:43:47.874Z,1.90
2023-02-16T04:44:50.352Z,6.60
2023-02-16T04:45:53.228Z,3.90
2023-02-16T04:46:55.826Z,4.60
2023-02-16T04:47:58.242Z,6.60
2023-02-16T04:49:03.026Z,7.00
2023-02-16T04:50:07.039Z,6.20
2023-02-16T04:51:09.513Z,6.20
2023-02-16T04:52:12.822Z,5.30
2023-02-16T04:53:15.082Z,7.00
2023-02-16T04:54:18.268Z,5.60
2023-02-16T04:55:20.643Z,6.50
2023-02-16T04:56:23.179Z,6.80
2023-02-16T04:57:25.565Z,8.40
2023-02-16T04:58:28.236Z,6.30
2023-02-16T04:59:30.528Z,6.60
2023-02-16T05:00:35.118Z,7.70
2023-02-16T05:01:37.694Z,7.20
2023-02-16T05:02:40.795Z,6.70
2023-02-16T05:03:43.072Z,7.45
2023-02-16T05:04:45.643Z,7.40
2023-02-16T05:05:48.163Z,6.70
2023-02-16T05:06:50.692Z,6.10
2023-02-16T05:07:53.654Z,4.30
2023-02-16T05:08:56.003Z,6.40
2023-02-16T05:09:58.493Z,7.40
2023-02-16T05:11:19.339Z,6.80
2023-02-16T05:12:40.361Z,6.60
2023-02-16T05:15:16.130Z,7.70
2023-02-16T05:16:22.929Z,6.80
2023-02-16T05:17:26.036Z,6.70
2023-02-16T05:18:28.874Z,7.80
2023-02-16T05:19:31.611Z,5.82
2023-02-16T05:20:53.273Z,8.70
2023-02-16T05:21:56.349Z,8.50
2023-02-16T05:23:01.386Z,7.60
2023-02-16T05:24:08.889Z,6.20
2023-02-16T05:25:11.565Z,7.10
2023-02-16T05:26:14.895Z,7.80
2023-02-16T05:27:19.212Z,8.30
2023-02-16T05:28:21.609Z,8.40
2023-02-16T05:29:24.311Z,7.30
2023-02-16T05:30:27.029Z,8.70
2023-02-16T05:31:29.987Z,9.70
2023-02-16T05:32:32.580Z,7.09
2023-02-16T05:33:35.360Z,8.00
2023-02-16T05:34:38.301Z,9.00
2023-02-16T05:35:40.477Z,8.40
2023-02-16T05:36:43.236Z,8.80
2023-02-16T05:37:46.027Z,7.10
2023-02-16T05:38:49.533Z,10.00
2023-02-16T05:39:52.598Z,11.30
2023-02-16T05:40:55.214Z,18.60
2023-02-16T05:41:57.891Z,17.50
2023-02-16T05:43:01.120Z,19.70
2023-02-16T05:44:03.992Z,21.70
2023-02-16T05:45:07.230Z,24.82
2023-02-16T05:46:09.848Z,24.80
2023-02-16T05:47:12.388Z,24.00
2023-02-16T05:48:14.889Z,20.70
2023-02-16T05:49:18.379Z,22.60
2023-02-16T05:50:22.168Z,21.80
2023-02-16T05:51:25.040Z,20.00
2023-02-16T05:52:28.224Z,22.10
2023-02-16T05:53:32.300Z,22.50
2023-02-16T05:54:34.970Z,22.90
2023-02-16T05:55:37.271Z,21.40
2023-02-16T05:56:40.544Z,22.10
2023-02-16T05:57:45.469Z,20.80
2023-02-16T05:58:48.153Z,22.30
2023-02-16T05:59:50.994Z,21.20
2023-02-16T06:00:53.889Z,21.80
2023-02-16T06:01:56.310Z,22.60
2023-02-16T06:02:59.647Z,20.70
2023-02-16T06:04:03.210Z,19.90
2023-02-16T06:05:07.304Z,19.60
2023-02-16T06:06:11.960Z,22.90
2023-02-16T06:07:15.188Z,20.00
2023-02-16T06:08:17.699Z,22.20
2023-02-16T06:09:20.391Z,19.10
2023-02-16T06:10:25.406Z,18.90
2023-02-16T06:11:37.558Z,19.80
2023-02-16T06:12:40.073Z,19.80
2023-02-16T06:13:42.536Z,19.20
2023-02-16T06:14:44.852Z,19.30
2023-02-16T06:15:47.691Z,20.60
2023-02-16T06:16:56.236Z,21.50
2023-02-16T06:17:59.410Z,17.60
2023-02-16T06:19:02.282Z,20.10
2023-02-16T06:20:06.460Z,20.70
2023-02-16T06:21:09.563Z,20.60
2023-02-16T06:22:12.163Z,17.40
2023-02-16T06:23:15.262Z,21.00
2023-02-16T06:24:18.942Z,18.40
2023-02-16T06:25:21.465Z,17.20
2023-02-16T06:26:24.397Z,17.20
2023-02-16T06:27:28.755Z,17.91
2023-02-16T06:28:32.097Z,12.10
2023-02-16T06:29:35.590Z,16.00
2023-02-16T06:30:38.531Z,17.90
2023-02-16T06:31:41.259Z,21.70
2023-02-16T06:32:43.969Z,17.70
2023-02-16T06:33:47.275Z,18.50
2023-02-16T06:34:49.794Z,17.40
2023-02-16T06:35:53.325Z,20.10
2023-02-16T06:36:55.953Z,17.90
2023-02-16T06:37:59.298Z,18.20
2023-02-16T06:39:01.723Z,19.70
2023-02-16T06:40:06.519Z,17.80
2023-02-16T06:41:08.924Z,17.80
2023-02-16T06:42:12.467Z,18.55
2023-02-16T06:43:14.931Z,17.80
2023-02-16T06:44:17.752Z,18.09
2023-02-16T06:45:22.046Z,18.60
2023-02-16T06:46:25.460Z,16.80
2023-02-16T06:47:27.971Z,19.10
2023-02-16T06:48:31.294Z,18.10
2023-02-16T06:49:34.721Z,15.50
2023-02-16T06:50:38.573Z,19.20
2023-02-16T06:51:41.031Z,16.30
2023-02-16T06:52:43.764Z,19.60
2023-02-16T06:53:47.475Z,17.64
2023-02-16T06:54:50.282Z,19.50
2023-02-16T06:55:52.957Z,16.73
2023-02-16T06:56:56.583Z,16.64
2023-02-16T06:57:59.435Z,16.40
2023-02-16T06:59:02.248Z,18.73
2023-02-16T07:00:08.046Z,16.60
2023-02-16T07:01:11.532Z,18.60
2023-02-16T07:02:15.056Z,16.30
2023-02-16T07:03:18.712Z,18.40
2023-02-16T07:04:22.768Z,17.60
2023-02-16T07:05:25.441Z,17.80
2023-02-16T07:06:28.570Z,15.91
2023-02-16T07:07:32.208Z,16.30
2023-02-16T07:08:35.684Z,17.30
2023-02-16T07:09:38.358Z,16.20
2023-02-16T07:10:50.005Z,18.45
2023-02-16T07:11:51.286Z,19.20
2023-02-16T07:12:54.098Z,20.20
2023-02-16T07:13:57.866Z,22.20
2023-02-16T07:15:00.421Z,20.90
2023-02-16T07:16:04.956Z,20.30
2023-02-16T07:17:07.419Z,17.00
2023-02-16T07:18:10.347Z,23.00
2023-02-16T07:19:13.162Z,20.45
2023-02-16T07:20:18.991Z,20.70
2023-02-16T07:21:21.787Z,19.00
2023-02-16T07:22:24.147Z,19.20
2023-02-16T07:23:28.034Z,17.10
2023-02-16T07:24:30.392Z,18.70
2023-02-16T07:25:35.934Z,18.10
2023-02-16T07:26:38.927Z,17.80
2023-02-16T07:27:41.380Z,19.50
2023-02-16T07:28:44.514Z,17.20
2023-02-16T07:29:47.137Z,18.40
2023-02-16T07:30:50.518Z,19.27
2023-02-16T07:31:54.107Z,16.70
2023-02-16T07:32:57.253Z,16.90
2023-02-16T07:33:59.761Z,16.70
2023-02-16T07:35:02.204Z,19.00
2023-02-16T07:36:07.091Z,16.30
2023-02-16T07:37:09.519Z,17.90
2023-02-16T07:38:13.300Z,18.50
2023-02-16T07:39:16.040Z,17.00
2023-02-16T07:40:20.415Z,19.50
2023-02-16T07:41:23.100Z,18.20
2023-02-16T07:42:31.043Z,19.40
2023-02-16T07:43:34.332Z,18.00
2023-02-16T07:44:36.806Z,17.30
2023-02-16T07:45:39.812Z,15.80
2023-02-16T07:46:42.438Z,16.80
2023-02-16T07:47:44.868Z,16.40
2023-02-16T07:48:48.992Z,15.10
2023-02-16T07:49:51.584Z,18.80
2023-02-16T07:50:55.099Z,18.30
2023-02-16T07:51:59.785Z,13.80
2023-02-16T07:53:02.808Z,16.80
2023-02-16T07:54:05.713Z,15.90
2023-02-16T07:55:09.760Z,17.50
2023-02-16T07:56:30.647Z,14.60
2023-02-16T07:57:33.660Z,16.70
2023-02-16T07:58:37.220Z,12.27
2023-02-16T07:59:40.033Z,17.80
2023-02-16T08:00:43.195Z,16.50
2023-02-16T08:01:46.385Z,14.36
2023-02-16T08:02:49.444Z,17.80
2023-02-16T08:03:53.159Z,14.50
2023-02-16T08:04:57.198Z,12.90
2023-02-16T08:06:00.954Z,15.80
2023-02-16T08:07:03.630Z,14.70
2023-02-16T08:08:06.532Z,13.50
2023-02-16T08:09:09.934Z,14.82
2023-02-16T08:10:13.009Z,12.40
2023-02-16T08:11:19.086Z,15.70
2023-02-16T08:12:21.791Z,15.00
2023-02-16T08:13:24.406Z,14.80
2023-02-16T08:14:27.890Z,14.90
2023-02-16T08:15:31.086Z,13.30
2023-02-16T08:16:34.770Z,10.20
2023-02-16T08:18:52.880Z,16.20
2023-02-16T08:19:55.796Z,14.00
2023-02-16T08:21:04.505Z,11.90
2023-02-16T08:22:05.312Z,15.30
2023-02-16T08:23:09.794Z,13.70
2023-02-16T08:24:12.849Z,13.60
2023-02-16T08:25:17.777Z,17.00
2023-02-16T08:26:23.417Z,14.80
2023-02-16T08:27:27.318Z,14.50
2023-02-16T08:28:29.802Z,13.90
2023-02-16T08:29:32.909Z,15.09
2023-02-16T08:30:37.547Z,14.90
2023-02-16T08:31:41.116Z,13.90
2023-02-16T08:32:45.301Z,17.50
2023-02-16T08:33:49.074Z,15.50
2023-02-16T08:34:52.024Z,14.10
2023-02-16T08:35:54.401Z,16.18
2023-02-16T08:36:57.068Z,15.40
2023-02-16T08:38:00.518Z,17.10
2023-02-16T08:39:06.006Z,13.30
2023-02-16T08:40:09.666Z,15.00
2023-02-16T08:41:12.656Z,16.80
2023-02-16T08:43:30.488Z,16.50
2023-02-16T08:44:33.933Z,16.09
2023-02-16T08:45:37.407Z,13.50
2023-02-16T08:46:41.143Z,13.50
2023-02-16T08:47:44.123Z,13.40
2023-02-16T08:48:46.862Z,15.20
2023-02-16T08:49:50.521Z,15.36
2023-02-16T08:50:53.225Z,14.00
2023-02-16T08:51:58.351Z,13.30
2023-02-16T08:53:06.279Z,14.10
2023-02-16T08:54:12.961Z,14.20
2023-02-16T08:55:20.803Z,12.40
2023-02-16T08:56:26.262Z,14.00
2023-02-16T08:57:29.748Z,12.80
2023-02-16T08:58:32.844Z,13.70
2023-02-16T08:59:35.130Z,13.73
2023-02-16T09:00:38.337Z,14.10
2023-02-16T09:01:41.444Z,14.40
2023-02-16T09:02:44.124Z,13.20
2023-02-16T09:03:48.440Z,14.00
2023-02-16T09:04:51.272Z,12.90
2023-02-16T09:05:54.397Z,14.60
2023-02-16T09:06:57.822Z,13.80
2023-02-16T09:08:00.328Z,14.20
2023-02-16T09:09:04.487Z,13.30
2023-02-16T09:10:07.809Z,15.20
2023-02-16T09:11:15.368Z,12.36
2023-02-16T09:12:17.822Z,15.00
2023-02-16T09:13:20.760Z,13.80
2023-02-16T09:14:23.443Z,14.80
2023-02-16T09:15:27.519Z,12.70
2023-02-16T09:16:33.312Z,13.10
2023-02-16T09:17:36.850Z,13.60
2023-02-16T09:18:39.707Z,16.40
2023-02-16T09:19:43.960Z,12.00
2023-02-16T09:20:47.200Z,12.60
2023-02-16T09:21:55.578Z,14.60
2023-02-16T09:22:58.874Z,9.70
2023-02-16T09:24:02.916Z,12.50
2023-02-16T09:25:08.570Z,11.80
2023-02-16T09:26:12.044Z,12.80
2023-02-16T09:27:14.839Z,14.50
2023-02-16T09:28:17.768Z,15.18
2023-02-16T09:29:20.677Z,13.40
2023-02-16T09:30:24.252Z,11.30
2023-02-16T09:31:28.970Z,14.50
2023-02-16T09:32:31.992Z,11.60
2023-02-16T09:33:35.026Z,11.27
2023-02-16T09:34:38.068Z,12.50
2023-02-16T09:35:41.481Z,12.70
2023-02-16T09:36:44.109Z,14.20
2023-02-16T09:37:49.248Z,12.30
2023-02-16T09:38:53.593Z,13.50
2023-02-16T09:39:56.964Z,13.40
2023-02-16T09:41:08.932Z,12.20
2023-02-16T09:42:21.648Z,13.90
2023-02-16T09:43:37.793Z,13.20
2023-02-16T09:45:03.670Z,14.80
2023-02-16T09:46:09.582Z,13.30
2023-02-16T09:48:42.101Z,15.00
2023-02-16T09:49:44.639Z,13.70
2023-02-16T09:50:54.387Z,12.30
2023-02-16T09:51:57.097Z,12.30
2023-02-16T09:53:13.683Z,12.20
2023-02-16T09:54:40.688Z,12.10
2023-02-16T09:55:47.308Z,14.30
2023-02-16T09:56:56.268Z,14.20
2023-02-16T09:59:41.472Z,12.40
2023-02-16T10:01:03.192Z,12.90
2023-02-16T10:02:26.160Z,15.90
2023-02-16T10:03:41.921Z,12.90
2023-02-16T10:04:57.653Z,16.60
2023-02-16T10:06:15.607Z,13.00
2023-02-16T10:07:24.910Z,16.30
2023-02-16T10:09:45.330Z,12.60
2023-02-16T10:11:03.883Z,15.30
2023-02-16T10:12:09.331Z,16.20
2023-02-16T10:13:17.983Z,14.00
2023-02-16T10:14:34.189Z,12.20
2023-02-16T10:15:38.119Z,13.30
2023-02-16T10:16:42.449Z,11.40
2023-02-16T10:18:59.662Z,17.00
2023-02-16T10:20:06.187Z,13.90
2023-02-16T10:21:16.017Z,14.80
2023-02-16T10:22:35.672Z,10.90
2023-02-16T10:23:57.337Z,17.10
2023-02-16T10:25:21.760Z,12.80
2023-02-16T10:27:21.521Z,15.50
2023-02-16T10:28:57.773Z,13.60
2023-02-16T10:30:00.505Z,13.40
2023-02-16T10:32:28.275Z,15.90
2023-02-16T10:33:46.523Z,13.00
2023-02-16T10:34:51.369Z,14.90
2023-02-16T10:35:58.093Z,14.30
2023-02-16T10:37:08.996Z,13.20
2023-02-16T10:38:15.193Z,14.10
2023-02-16T10:39:24.248Z,9.40
2023-02-16T10:41:48.537Z,14.70
2023-02-16T10:43:23.860Z,12.00
2023-02-16T10:44:29.999Z,14.30
2023-02-16T10:45:55.972Z,11.40
2023-02-16T10:47:03.846Z,10.30
2023-02-16T10:49:02.804Z,12.80
2023-02-16T10:50:29.337Z,12.90
2023-02-16T10:51:34.341Z,14.50
2023-02-16T10:52:38.287Z,15.20
2023-02-16T10:53:46.394Z,12.70
2023-02-16T10:54:48.879Z,12.10
2023-02-16T10:55:51.316Z,11.80
2023-02-16T10:57:01.751Z,16.60
2023-02-16T10:58:07.621Z,13.50
2023-02-16T10:59:22.154Z,12.40
2023-02-16T11:00:29.253Z,12.50
2023-02-16T11:01:37.656Z,13.30
2023-02-16T11:02:46.069Z,13.80
2023-02-16T11:03:51.022Z,15.00
2023-02-16T11:04:55.384Z,14.70
2023-02-16T11:05:58.810Z,13.80
2023-02-16T11:07:03.526Z,13.20
2023-02-16T11:08:07.141Z,16.40
2023-02-16T11:09:10.620Z,17.30
2023-02-16T11:10:36.849Z,17.40
2023-02-16T11:11:41.320Z,18.70
2023-02-16T11:12:43.983Z,20.10
2023-02-16T11:13:48.343Z,18.70
2023-02-16T11:16:22.532Z,18.90
2023-02-16T11:17:25.519Z,18.90
2023-02-16T11:18:34.497Z,17.80
2023-02-16T11:19:37.000Z,17.80
2023-02-16T11:20:47.116Z,17.70
2023-02-16T11:21:52.643Z,18.20
2023-02-16T11:24:26.601Z,18.60
2023-02-16T11:25:28.968Z,20.10
2023-02-16T11:26:32.405Z,19.27
2023-02-16T11:27:37.345Z,18.50
2023-02-16T11:28:45.434Z,21.20
2023-02-16T11:29:50.678Z,19.50
2023-02-16T11:30:59.846Z,20.40
2023-02-16T11:32:10.480Z,18.00
2023-02-16T11:33:22.329Z,18.00
2023-02-16T11:34:32.043Z,21.90
2023-02-16T11:35:38.283Z,20.10
2023-02-16T11:36:48.080Z,17.00
2023-02-16T11:37:51.656Z,18.90
2023-02-16T11:39:06.780Z,18.40
2023-02-16T11:41:35.159Z,20.20
2023-02-16T11:42:45.231Z,18.50
2023-02-16T11:43:47.750Z,22.30
2023-02-16T11:44:54.640Z,19.60
2023-02-16T11:47:24.551Z,17.30
2023-02-16T11:48:28.892Z,21.10
2023-02-16T11:49:37.134Z,20.40
2023-02-16T11:50:42.642Z,19.90
2023-02-16T11:51:46.526Z,18.70
2023-02-16T11:52:51.019Z,23.10
2023-02-16T11:54:00.107Z,20.60
2023-02-16T11:55:03.321Z,24.20
2023-02-16T11:56:23.393Z,20.00
2023-02-16T11:57:29.115Z,23.10
2023-02-16T11:58:31.799Z,20.90
2023-02-16T11:59:38.324Z,22.40
2023-02-16T12:00:44.170Z,21.80
2023-02-16T12:02:12.031Z,27.50
2023-02-16T12:03:31.533Z,25.50
2023-02-16T12:06:07.402Z,26.40
2023-02-16T12:07:17.013Z,25.60
2023-02-16T12:10:26.829Z,22.00
2023-02-16T12:11:55.424Z,25.70
2023-02-16T12:13:07.345Z,25.60
2023-02-16T12:14:47.661Z,23.40
2023-02-16T12:16:02.549Z,23.20
2023-02-16T12:17:44.242Z,24.50
2023-02-16T12:19:09.333Z,22.60
2023-02-16T12:20:16.817Z,18.50
2023-02-16T12:21:48.835Z,20.60
2023-02-16T12:22:59.200Z,22.00
2023-02-16T12:25:39.138Z,5.80
2023-02-16T12:28:23.298Z,21.10
2023-02-16T12:29:39.349Z,19.50
2023-02-16T12:31:00.441Z,22.30
2023-02-16T12:32:22.304Z,21.90
2023-02-16T12:33:53.853Z,23.60
2023-02-16T12:35:18.065Z,23.90
2023-02-16T12:38:15.896Z,21.20
2023-02-16T12:39:25.545Z,20.70
2023-02-16T12:40:33.436Z,23.30
2023-02-16T12:42:04.973Z,22.50
2023-02-16T12:43:27.977Z,21.20
2023-02-16T12:44:46.389Z,18.70
2023-02-16T12:45:49.166Z,23.90
2023-02-16T12:46:56.369Z,21.00
2023-02-16T12:48:09.582Z,22.60
2023-02-16T12:51:33.685Z,20.80
2023-02-16T12:53:07.511Z,18.80
2023-02-16T12:55:55.470Z,21.30
2023-02-16T12:57:08.155Z,20.00
2023-02-16T12:58:19.581Z,19.70
2023-02-16T13:00:48.962Z,18.20
2023-02-16T13:01:52.737Z,19.50
2023-02-16T13:03:00.629Z,15.90
2023-02-16T13:04:09.336Z,17.40
2023-02-16T13:05:18.190Z,9.70
2023-02-16T13:06:34.555Z,16.30
2023-02-16T13:09:34.175Z,19.70
2023-02-16T13:10:40.153Z,18.60
2023-02-16T13:13:16.540Z,14.70
2023-02-16T13:14:28.101Z,14.70
2023-02-16T13:15:52.382Z,14.40
2023-02-16T13:17:07.499Z,16.70
2023-02-16T13:18:22.298Z,16.00
2023-02-16T13:19:26.227Z,15.50
2023-02-16T13:20:29.380Z,10.60
2023-02-16T13:21:51.020Z,13.10
2023-02-16T13:22:55.823Z,15.00
2023-02-16T13:25:37.329Z,15.10
2023-02-16T13:26:53.099Z,16.30
2023-02-16T13:28:22.382Z,13.60
2023-02-16T13:29:47.349Z,15.80
2023-02-16T13:31:18.167Z,13.10
2023-02-16T13:32:45.389Z,14.60
2023-02-16T13:33:57.970Z,15.40
2023-02-16T13:36:52.121Z,14.50
2023-02-16T13:38:23.160Z,14.80
2023-02-16T13:41:22.488Z,14.00
2023-02-16T13:42:44.104Z,10.20
2023-02-16T13:43:55.956Z,16.10
2023-02-16T13:45:04.701Z,14.30
2023-02-16T13:46:14.407Z,16.00
2023-02-16T13:47:21.274Z,16.80
2023-02-16T13:48:38.194Z,14.60
2023-02-16T13:49:44.139Z,17.20
2023-02-16T13:50:48.721Z,16.30
2023-02-16T13:51:52.626Z,16.40
2023-02-16T13:52:57.371Z,15.10
2023-02-16T13:54:01.366Z,16.90
2023-02-16T13:55:08.213Z,16.10
2023-02-16T13:56:23.495Z,13.30
2023-02-16T13:57:51.731Z,17.40
2023-02-16T13:58:54.828Z,14.30
2023-02-16T14:00:02.215Z,18.60
2023-02-16T14:01:28.097Z,18.30
2023-02-16T14:03:00.215Z,20.20
2023-02-16T14:04:03.045Z,18.50
2023-02-16T14:05:08.448Z,18.09
2023-02-16T14:06:34.557Z,17.40
2023-02-16T14:07:38.344Z,18.10
2023-02-16T14:08:43.604Z,18.90
2023-02-16T14:09:47.683Z,18.20
2023-02-16T14:11:00.149Z,19.10
2023-02-16T14:12:13.776Z,22.40
2023-02-16T14:13:16.123Z,18.50
2023-02-16T14:14:43.893Z,18.30
2023-02-16T14:15:51.524Z,17.90
2023-02-16T14:16:54.112Z,19.30
2023-02-16T14:17:57.727Z,19.90
2023-02-16T14:19:06.387Z,20.10
2023-02-16T14:20:15.731Z,19.90
2023-02-16T14:21:31.114Z,20.10
2023-02-16T14:24:27.665Z,16.80
2023-02-16T14:25:32.359Z,19.50
2023-02-16T14:28:08.779Z,17.10
2023-02-16T14:29:20.674Z,20.40
2023-02-16T14:30:46.487Z,18.20
2023-02-16T14:31:59.531Z,19.30
2023-02-16T14:33:17.847Z,18.90
2023-02-16T14:35:46.564Z,20.00
2023-02-16T14:38:33.334Z,19.70
2023-02-16T14:39:53.298Z,20.80
2023-02-16T14:43:45.188Z,20.10
2023-02-16T14:45:22.433Z,19.00
2023-02-16T14:46:45.912Z,21.10
2023-02-16T14:49:43.939Z,19.20
2023-02-16T14:52:29.470Z,19.50
2023-02-16T14:53:51.180Z,20.90
2023-02-16T14:55:24.176Z,21.60
2023-02-16T14:56:43.207Z,21.10
2023-02-16T14:57:55.893Z,18.30
2023-02-16T14:59:23.494Z,21.90
2023-02-16T15:00:36.520Z,21.30
2023-02-16T15:01:43.620Z,24.00
2023-02-16T15:03:03.338Z,18.60
2023-02-16T15:04:07.313Z,23.00
2023-02-16T15:05:20.661Z,16.00
2023-02-16T15:06:33.054Z,19.80
2023-02-16T15:07:37.693Z,21.00
2023-02-16T15:08:44.955Z,19.90
2023-02-16T15:09:49.658Z,14.70
2023-02-16T15:10:57.660Z,19.90
2023-02-16T15:12:21.224Z,20.30
2023-02-16T15:13:27.922Z,20.00
2023-02-16T15:14:31.661Z,19.30
2023-02-16T15:15:41.106Z,20.70
2023-02-16T15:16:46.810Z,21.30
2023-02-16T15:17:49.803Z,16.20
2023-02-16T15:18:54.242Z,16.80
2023-02-16T15:20:00.149Z,15.80
2023-02-16T15:21:03.880Z,14.70
2023-02-16T15:22:21.479Z,15.90
2023-02-16T15:23:26.591Z,18.20
2023-02-16T15:24:30.693Z,16.40
2023-02-16T15:25:41.598Z,18.20
2023-02-16T15:26:48.409Z,17.10
2023-02-16T15:29:18.158Z,17.80
2023-02-16T15:30:24.760Z,11.50
2023-02-16T15:33:06.102Z,17.00
2023-02-16T15:35:39.285Z,16.30
2023-02-16T15:36:47.124Z,20.80
2023-02-16T15:39:41.332Z,20.40
2023-02-16T15:40:35.689Z,17.80
2023-02-16T15:41:41.037Z,19.10
2023-02-16T15:42:45.797Z,16.00
2023-02-16T15:43:51.017Z,17.40
2023-02-16T15:44:53.579Z,19.80
2023-02-16T15:45:57.382Z,17.60
2023-02-16T15:47:12.035Z,16.40
2023-02-16T15:49:34.280Z,17.70
2023-02-16T15:50:38.988Z,15.20
2023-02-16T15:51:42.517Z,15.50
2023-02-16T15:52:46.419Z,17.80
2023-02-16T15:53:51.585Z,16.20
2023-02-16T15:54:55.097Z,16.20
2023-02-16T15:55:58.331Z,18.90
2023-02-16T15:57:16.761Z,17.90
2023-02-16T15:58:20.556Z,16.00
2023-02-16T15:59:35.935Z,19.20
2023-02-16T16:00:41.496Z,18.40
2023-02-16T16:01:52.113Z,17.70
2023-02-16T16:02:55.356Z,16.70